createdAt,value
2023-10-26T00:01:32.660Z,98641.44
2023-10-26T00:04:00.840Z,98642.91
2023-10-26T00:06:28.406Z,98639.72
2023-10-26T00:08:56.283Z,98630.03
2023-10-26T00:11:23.844Z,98628.03
2023-10-26T00:13:51.541Z,98614.34
2023-10-26T00:16:18.916Z,98627.41
2023-10-26T00:18:46.609Z,98616.72
2023-10-26T00:21:14.421Z,98626.91
2023-10-26T00:23:42.285Z,98626.41
2023-10-26T00:26:09.856Z,98620.91
2023-10-26T00:28:37.510Z,98630.59
2023-10-26T00:31:05.191Z,98626.41
2023-10-26T00:33:32.915Z,98629.91
2023-10-26T00:36:00.509Z,98614.03
2023-10-26T00:38:28.175Z,98625.41
2023-10-26T00:40:55.509Z,98617.66
2023-10-26T00:43:24.125Z,98620.56
2023-10-26T00:45:53.563Z,98610.50
2023-10-26T00:48:22.298Z,98608.78
2023-10-26T00:50:50.187Z,98624.69
2023-10-26T00:53:20.164Z,98619.97
2023-10-26T00:55:49.828Z,98616.69
2023-10-26T00:58:18.601Z,98611.81
2023-10-26T01:00:46.158Z,98610.69
2023-10-26T01:03:15.010Z,98603.16
2023-10-26T01:05:42.590Z,98605.84
2023-10-26T01:08:10.434Z,98595.13
2023-10-26T01:10:38.410Z,98595.94
2023-10-26T01:13:06.053Z,98589.75
2023-10-26T01:15:33.447Z,98581.22
2023-10-26T01:18:01.183Z,98580.88
2023-10-26T01:20:29.276Z,98571.50
2023-10-26T01:22:56.957Z,98558.97
2023-10-26T01:25:24.447Z,98558.53
2023-10-26T01:27:53.112Z,98571.06
2023-10-26T01:30:20.577Z,98570.56
2023-10-26T01:32:48.441Z,98568.53
2023-10-26T01:35:16.115Z,98558.47
2023-10-26T01:37:43.846Z,98558.44
2023-10-26T01:40:12.096Z,98564.50
2023-10-26T01:42:39.856Z,98562.09
2023-10-26T01:45:08.748Z,98561.09
2023-10-26T01:47:37.333Z,98557.63
2023-10-26T01:50:06.155Z,98553.81
2023-10-26T01:52:35.661Z,98557.53
2023-10-26T01:55:03.189Z,98555.19
2023-10-26T01:57:30.817Z,98552.63
2023-10-26T01:59:58.763Z,98546.63
2023-10-26T02:02:26.477Z,98554.84
2023-10-26T02:04:55.926Z,98554.19
2023-10-26T02:07:23.573Z,98551.16
2023-10-26T02:09:51.086Z,98550.84
2023-10-26T02:12:18.766Z,98546.00
2023-10-26T02:14:46.247Z,98536.13
2023-10-26T02:17:14.360Z,98532.56
2023-10-26T02:19:41.969Z,98524.34
2023-10-26T02:22:09.737Z,98541.00
2023-10-26T02:24:37.214Z,98535.59
2023-10-26T02:27:05.298Z,98542.81
2023-10-26T02:29:32.699Z,98534.81
2023-10-26T02:32:00.368Z,98528.25
2023-10-26T02:34:27.749Z,98533.63
2023-10-26T02:36:55.565Z,98532.28
2023-10-26T02:39:23.597Z,98521.09
2023-10-26T02:41:51.374Z,98525.75
2023-10-26T02:44:18.866Z,98528.88
2023-10-26T02:46:46.637Z,98532.69
2023-10-26T02:49:14.026Z,98532.16
2023-10-26T02:51:42.224Z,98523.84
2023-10-26T02:54:10.654Z,98517.97
2023-10-26T02:56:38.488Z,98519.47
2023-10-26T02:59:05.884Z,98519.88
2023-10-26T03:01:37.549Z,98521.19
2023-10-26T03:04:06.123Z,98512.81
2023-10-26T03:06:40.961Z,98508.13
2023-10-26T03:09:11.919Z,98511.09
2023-10-26T03:11:39.874Z,98515.59
2023-10-26T03:14:07.291Z,98503.91
2023-10-26T03:16:35.071Z,98510.56
2023-10-26T03:19:02.600Z,98508.72
2023-10-26T03:21:30.561Z,98495.78
2023-10-26T03:23:58.297Z,98489.56
2023-10-26T03:26:26.267Z,98487.06
2023-10-26T03:28:54.239Z,98484.50
2023-10-26T03:31:22.047Z,98499.78
2023-10-26T03:33:50.600Z,98494.59
2023-10-26T03:36:20.485Z,98486.94
2023-10-26T03:38:50.165Z,98473.50
2023-10-26T03:41:17.975Z,98464.81
2023-10-26T03:43:45.266Z,98465.84
2023-10-26T03:46:13.004Z,98472.81
2023-10-26T03:48:40.399Z,98466.09
2023-10-26T03:51:08.481Z,98467.72
2023-10-26T03:53:35.933Z,98469.75
2023-10-26T03:56:03.839Z,98475.56
2023-10-26T03:58:31.302Z,98470.50
2023-10-26T04:00:59.485Z,98480.22
2023-10-26T04:03:27.184Z,98482.53
2023-10-26T04:05:54.967Z,98464.47
2023-10-26T04:08:22.264Z,98466.50
2023-10-26T04:10:50.928Z,98469.47
2023-10-26T04:13:18.292Z,98470.25
2023-10-26T04:15:45.899Z,98471.56
2023-10-26T04:18:13.479Z,98469.63
2023-10-26T04:20:41.308Z,98463.06
2023-10-26T04:23:08.775Z,98452.72
2023-10-26T04:25:53.070Z,98460.41
2023-10-26T04:28:22.730Z,98461.03
2023-10-26T04:30:51.084Z,98457.81
2023-10-26T04:33:19.406Z,98452.22
2023-10-26T04:35:49.077Z,98449.09
2023-10-26T04:38:16.411Z,98433.34
2023-10-26T04:40:45.383Z,98435.94
2023-10-26T04:43:12.727Z,98425.88
2023-10-26T04:45:40.337Z,98416.69
2023-10-26T04:48:07.820Z,98428.22
2023-10-26T04:50:35.873Z,98434.06
2023-10-26T04:53:03.941Z,98422.03
2023-10-26T04:55:35.066Z,98427.16
2023-10-26T04:58:03.996Z,98419.88
2023-10-26T05:00:32.509Z,98429.56
2023-10-26T05:03:00.107Z,98425.44
2023-10-26T05:05:28.203Z,98423.19
2023-10-26T05:07:55.856Z,98420.66
2023-10-26T05:10:23.578Z,98427.78
2023-10-26T05:12:51.096Z,98427.94
2023-10-26T05:15:20.233Z,98416.38
2023-10-26T05:17:47.684Z,98411.13
2023-10-26T05:20:15.540Z,98411.28
2023-10-26T05:22:42.943Z,98416.72
2023-10-26T05:25:12.590Z,98410.50
2023-10-26T05:27:39.972Z,98412.06
2023-10-26T05:30:08.394Z,98415.78
2023-10-26T05:32:36.237Z,98417.75
2023-10-26T05:35:05.226Z,98408.91
2023-10-26T05:37:33.188Z,98413.91
2023-10-26T05:40:00.849Z,98408.38
2023-10-26T05:42:28.460Z,98411.63
2023-10-26T05:44:57.236Z,98422.75
2023-10-26T05:47:25.279Z,98412.38
2023-10-26T05:49:52.712Z,98407.13
2023-10-26T05:52:20.814Z,98413.75
2023-10-26T05:54:48.306Z,98403.63
2023-10-26T05:57:15.937Z,98420.41
2023-10-26T05:59:43.278Z,98412.41
2023-10-26T06:02:12.938Z,98420.16
2023-10-26T06:04:40.429Z,98410.28
2023-10-26T06:07:08.131Z,98410.41
2023-10-26T06:09:35.677Z,98409.03
2023-10-26T06:12:03.549Z,98411.81
2023-10-26T06:14:31.043Z,98412.47
2023-10-26T06:16:58.733Z,98399.50
2023-10-26T06:19:26.084Z,98409.88
2023-10-26T06:21:53.844Z,98406.13
2023-10-26T06:24:21.379Z,98403.91
2023-10-26T06:26:49.097Z,98412.13
2023-10-26T06:29:16.600Z,98417.75
2023-10-26T06:31:45.715Z,98407.72
2023-10-26T06:34:13.157Z,98406.00
2023-10-26T06:36:40.791Z,98409.16
2023-10-26T06:39:08.836Z,98404.94
2023-10-26T06:41:36.632Z,98407.91
2023-10-26T06:44:04.946Z,98419.13
2023-10-26T06:46:32.799Z,98408.28
2023-10-26T06:49:02.832Z,98422.28
2023-10-26T06:51:34.312Z,98418.84
2023-10-26T06:54:01.738Z,98414.59
2023-10-26T06:56:29.441Z,98423.75
2023-10-26T06:58:57.249Z,98420.25
2023-10-26T07:01:25.024Z,98411.47
2023-10-26T07:03:52.504Z,98410.06
2023-10-26T07:06:20.772Z,98403.41
2023-10-26T07:08:52.090Z,98407.38
2023-10-26T07:11:24.437Z,98408.13
2023-10-26T07:13:51.807Z,98395.13
2023-10-26T07:16:19.676Z,98406.38
2023-10-26T07:18:47.279Z,98412.59
2023-10-26T07:21:16.979Z,98409.31
2023-10-26T07:23:45.896Z,98394.66
2023-10-26T07:26:18.962Z,98406.06
2023-10-26T07:28:46.981Z,98413.06
2023-10-26T07:31:21.707Z,98405.50
2023-10-26T07:33:50.427Z,98403.88
2023-10-26T07:36:18.594Z,98401.63
2023-10-26T07:38:46.161Z,98402.44
2023-10-26T07:41:14.059Z,98409.84
2023-10-26T07:43:41.589Z,98396.41
2023-10-26T07:46:10.731Z,98403.06
2023-10-26T07:48:38.277Z,98408.28
2023-10-26T07:51:06.135Z,98403.63
2023-10-26T07:53:34.634Z,98417.69
2023-10-26T07:56:02.904Z,98414.59
2023-10-26T07:58:31.703Z,98419.56
2023-10-26T08:00:59.500Z,98417.00
2023-10-26T08:03:29.117Z,98414.50
2023-10-26T08:06:02.014Z,98415.69
2023-10-26T08:08:30.218Z,98412.03
2023-10-26T08:11:07.455Z,98417.91
2023-10-26T08:13:35.302Z,98410.69
2023-10-26T08:16:10.966Z,98418.22
2023-10-26T08:18:53.212Z,98413.38
2023-10-26T08:21:21.609Z,98411.16
2023-10-26T08:23:48.971Z,98400.13
2023-10-26T08:26:16.716Z,98397.25
2023-10-26T08:28:44.170Z,98407.16
2023-10-26T08:31:12.059Z,98407.63
2023-10-26T08:33:39.511Z,98391.84
2023-10-26T08:36:07.720Z,98398.81
2023-10-26T08:38:35.135Z,98398.66
2023-10-26T08:41:03.035Z,98404.25
2023-10-26T08:43:31.638Z,98401.03
2023-10-26T08:46:01.489Z,98410.38
2023-10-26T08:48:31.641Z,98411.94
2023-10-26T08:50:59.551Z,98413.50
2023-10-26T08:53:27.273Z,98402.75
2023-10-26T08:55:56.286Z,98399.69
2023-10-26T08:58:23.973Z,98400.63
2023-10-26T09:00:55.029Z,98407.06
2023-10-26T09:03:24.008Z,98392.53
2023-10-26T09:05:56.638Z,98400.53
2023-10-26T09:08:24.799Z,98399.16
2023-10-26T09:10:52.730Z,98398.47
2023-10-26T09:13:28.769Z,98398.16
2023-10-26T09:15:58.805Z,98397.72
2023-10-26T09:18:29.520Z,98389.69
2023-10-26T09:21:08.672Z,98385.53
2023-10-26T09:23:41.388Z,98390.63
2023-10-26T09:26:10.658Z,98393.88
2023-10-26T09:28:50.229Z,98402.28
2023-10-26T09:31:19.171Z,98389.41
2023-10-26T09:33:47.697Z,98388.53
2023-10-26T09:36:19.831Z,98403.28
2023-10-26T09:38:48.959Z,98401.44
2023-10-26T09:41:20.115Z,98400.34
2023-10-26T09:43:48.757Z,98394.75
2023-10-26T09:49:06.287Z,98393.22
2023-10-26T09:51:34.084Z,98383.13
2023-10-26T09:54:05.149Z,98382.09
2023-10-26T09:56:34.435Z,98376.19
2023-10-26T09:59:02.388Z,98376.84
2023-10-26T10:01:38.662Z,98378.97
2023-10-26T10:04:07.443Z,98379.69
2023-10-26T10:06:55.307Z,98373.47
2023-10-26T10:09:24.222Z,98372.59
2023-10-26T10:12:15.352Z,98366.22
2023-10-26T10:15:40.778Z,98370.09
2023-10-26T10:18:05.129Z,98361.34
2023-10-26T10:20:37.124Z,98362.69
2023-10-26T10:23:05.717Z,98359.00
2023-10-26T10:25:51.217Z,98356.03
2023-10-26T10:28:22.128Z,98350.97
2023-10-26T10:30:58.268Z,98348.09
2023-10-26T10:33:27.866Z,98348.22
2023-10-26T10:36:09.518Z,98349.28
2023-10-26T10:38:39.275Z,98336.69
2023-10-26T10:41:09.408Z,98352.06
2023-10-26T10:43:37.487Z,98349.38
2023-10-26T10:46:21.587Z,98356.84
2023-10-26T10:49:05.841Z,98350.47
2023-10-26T10:51:33.297Z,98351.56
2023-10-26T10:54:06.079Z,98340.66
2023-10-26T10:56:44.495Z,98342.69
2023-10-26T10:59:23.084Z,98346.88
2023-10-26T11:01:52.578Z,98347.50
2023-10-26T11:04:22.345Z,98336.59
2023-10-26T11:06:51.556Z,98337.44
2023-10-26T11:09:27.758Z,98337.31
2023-10-26T11:11:56.092Z,98347.53
2023-10-26T11:14:24.064Z,98341.34
2023-10-26T11:16:52.171Z,98333.81
2023-10-26T11:19:19.805Z,98341.13
2023-10-26T11:21:47.466Z,98323.84
2023-10-26T11:24:19.541Z,98328.28
2023-10-26T11:27:05.661Z,98337.22
2023-10-26T11:29:33.614Z,98329.47
2023-10-26T11:32:01.039Z,98324.91
2023-10-26T11:34:29.352Z,98326.78
2023-10-26T11:36:58.528Z,98318.13
2023-10-26T11:39:28.626Z,98329.72
2023-10-26T11:41:58.073Z,98328.63
2023-10-26T11:44:31.001Z,98328.91
2023-10-26T11:46:59.882Z,98319.09
2023-10-26T11:49:40.872Z,98331.16
2023-10-26T11:52:11.377Z,98325.50
2023-10-26T11:54:51.431Z,98315.97
2023-10-26T11:57:18.981Z,98322.38
2023-10-26T11:59:46.668Z,98318.66
2023-10-26T12:02:14.273Z,98314.41
2023-10-26T12:04:41.946Z,98310.25
2023-10-26T12:07:09.358Z,98316.06
2023-10-26T12:09:37.071Z,98309.47
2023-10-26T12:12:04.670Z,98315.78
2023-10-26T12:14:32.399Z,98301.25
2023-10-26T12:16:59.907Z,98296.88
2023-10-26T12:19:30.259Z,98293.66
2023-10-26T12:21:58.690Z,98293.28
2023-10-26T12:24:27.087Z,98304.09
2023-10-26T12:26:58.063Z,98310.31
2023-10-26T12:29:25.911Z,98303.06
2023-10-26T12:31:53.614Z,98300.16
2023-10-26T12:34:21.991Z,98303.88
2023-10-26T12:36:49.336Z,98305.97
2023-10-26T12:39:17.117Z,98305.25
2023-10-26T12:41:45.414Z,98302.81
2023-10-26T12:44:13.844Z,98305.44
2023-10-26T12:46:41.245Z,98301.38
2023-10-26T12:49:08.969Z,98303.66
2023-10-26T12:51:38.663Z,98297.81
2023-10-26T12:54:10.735Z,98302.94
2023-10-26T12:56:38.406Z,98298.94
2023-10-26T12:59:06.117Z,98305.31
2023-10-26T13:01:33.627Z,98292.22
2023-10-26T13:04:01.425Z,98294.72
2023-10-26T13:06:28.982Z,98286.66
2023-10-26T13:08:56.719Z,98285.63
2023-10-26T13:11:24.238Z,98296.28
2023-10-26T13:13:51.971Z,98282.69
2023-10-26T13:16:19.448Z,98298.50
2023-10-26T13:18:47.676Z,98294.13
2023-10-26T13:21:17.349Z,98286.00
2023-10-26T13:23:44.987Z,98280.56
2023-10-26T13:26:12.551Z,98294.88
2023-10-26T13:28:40.231Z,98301.09
2023-10-26T13:31:08.260Z,98284.72
2023-10-26T13:33:36.424Z,98288.97
2023-10-26T13:36:04.113Z,98282.03
2023-10-26T13:38:31.836Z,98280.94
2023-10-26T13:40:59.281Z,98293.03
2023-10-26T13:43:26.980Z,98284.72
2023-10-26T13:45:54.993Z,98287.31
2023-10-26T13:48:22.636Z,98295.34
2023-10-26T13:50:58.121Z,98288.78
2023-10-26T13:53:25.844Z,98298.50
2023-10-26T13:55:53.352Z,98291.34
2023-10-26T13:58:20.928Z,98284.81
2023-10-26T14:00:48.412Z,98291.56
2023-10-26T14:03:16.186Z,98291.81
2023-10-26T14:05:54.012Z,98284.91
2023-10-26T14:08:31.512Z,98292.97
2023-10-26T14:11:00.950Z,98294.31
2023-10-26T14:13:29.790Z,98291.63
2023-10-26T14:15:57.179Z,98303.00
2023-10-26T14:18:24.861Z,98303.28
2023-10-26T14:20:52.462Z,98304.78
2023-10-26T14:23:21.118Z,98300.88
2023-10-26T14:25:48.598Z,98297.59
2023-10-26T14:28:16.508Z,98301.53
2023-10-26T14:30:44.042Z,98300.06
2023-10-26T14:33:11.854Z,98303.09
2023-10-26T14:35:39.333Z,98302.38
2023-10-26T14:38:09.714Z,98310.50
2023-10-26T14:40:38.516Z,98312.25
2023-10-26T14:43:06.251Z,98302.47
2023-10-26T14:45:36.500Z,98297.38
2023-10-26T14:48:04.884Z,98304.69
2023-10-26T14:50:32.411Z,98302.34
2023-10-26T14:53:00.265Z,98294.47
2023-10-26T14:55:27.759Z,98297.53
2023-10-26T14:57:55.550Z,98301.91
2023-10-26T15:00:23.279Z,98302.75
2023-10-26T15:02:51.039Z,98300.81
2023-10-26T15:05:18.488Z,98301.19
2023-10-26T15:07:46.268Z,98298.88
2023-10-26T15:10:24.245Z,98300.63
2023-10-26T15:12:55.464Z,98309.75
2023-10-26T15:15:24.719Z,98310.81
2023-10-26T15:17:53.408Z,98308.50
2023-10-26T15:20:21.091Z,98314.88
2023-10-26T15:22:48.872Z,98303.88
2023-10-26T15:25:17.170Z,98311.81
2023-10-26T15:27:44.916Z,98315.81
2023-10-26T15:30:13.642Z,98314.31
2023-10-26T15:32:41.528Z,98310.97
2023-10-26T15:35:09.122Z,98318.94
2023-10-26T15:37:37.588Z,98329.00
2023-10-26T15:40:06.418Z,98316.44
2023-10-26T15:42:34.700Z,98328.00
2023-10-26T15:45:02.179Z,98329.94
2023-10-26T15:47:30.131Z,98315.03
2023-10-26T15:49:59.361Z,98325.78
2023-10-26T15:52:27.408Z,98329.03
2023-10-26T15:54:54.725Z,98329.38
2023-10-26T15:57:23.318Z,98326.63
2023-10-26T15:59:50.852Z,98328.09
2023-10-26T16:02:19.600Z,98331.72
2023-10-26T16:04:47.005Z,98329.38
2023-10-26T16:07:14.755Z,98335.59
2023-10-26T16:09:42.171Z,98326.25
2023-10-26T16:12:09.834Z,98327.44
2023-10-26T16:14:37.341Z,98321.44
2023-10-26T16:17:05.187Z,98334.56
2023-10-26T16:19:32.550Z,98335.78
2023-10-26T16:22:00.275Z,98318.47
2023-10-26T16:24:27.890Z,98328.28
2023-10-26T16:26:56.066Z,98332.81
2023-10-26T16:29:23.510Z,98324.66
2023-10-26T16:31:51.220Z,98314.03
2023-10-26T16:34:18.542Z,98322.63
2023-10-26T16:36:46.534Z,98311.25
2023-10-26T16:39:13.970Z,98312.19
2023-10-26T16:41:41.823Z,98313.28
2023-10-26T16:44:09.311Z,98312.19
2023-10-26T16:46:37.496Z,98316.06
2023-10-26T16:49:05.068Z,98319.31
2023-10-26T16:51:34.879Z,98317.63
2023-10-26T16:54:02.424Z,98311.63
2023-10-26T16:56:30.452Z,98304.44
2023-10-26T16:58:58.111Z,98312.94
2023-10-26T17:01:25.947Z,98308.09
2023-10-26T17:03:53.658Z,98316.09
2023-10-26T17:06:21.410Z,98307.81
2023-10-26T17:08:49.404Z,98313.41
2023-10-26T17:11:17.107Z,98307.56
2023-10-26T17:13:44.507Z,98303.97
2023-10-26T17:16:12.493Z,98306.06
2023-10-26T17:18:40.000Z,98297.94
2023-10-26T17:21:07.746Z,98308.94
2023-10-26T17:23:35.638Z,98301.81
2023-10-26T17:26:03.506Z,98303.56
2023-10-26T17:28:31.088Z,98295.53
2023-10-26T17:31:07.786Z,98303.88
2023-10-26T17:33:35.549Z,98309.03
2023-10-26T17:36:04.674Z,98294.78
2023-10-26T17:38:35.762Z,98300.72
2023-10-26T17:41:17.689Z,98296.47
2023-10-26T17:43:45.467Z,98300.16
2023-10-26T17:46:16.913Z,98302.00
2023-10-26T17:48:45.200Z,98305.78
2023-10-26T17:51:13.076Z,98297.00
2023-10-26T17:53:42.938Z,98298.78
2023-10-26T17:56:13.701Z,98290.63
2023-10-26T17:58:42.069Z,98286.59
2023-10-26T18:01:11.657Z,98295.56
2023-10-26T18:03:39.518Z,98291.28
2023-10-26T18:06:07.488Z,98289.72
2023-10-26T18:08:36.830Z,98284.81
2023-10-26T18:11:05.084Z,98294.16
2023-10-26T18:13:33.860Z,98283.34
2023-10-26T18:16:09.172Z,98286.59
2023-10-26T18:18:38.089Z,98297.66
2023-10-26T18:21:08.019Z,98288.63
2023-10-26T18:23:36.309Z,98283.34
2023-10-26T18:26:06.277Z,98298.41
2023-10-26T18:28:35.703Z,98292.78
2023-10-26T18:31:17.160Z,98294.78
2023-10-26T18:33:47.096Z,98296.19
2023-10-26T18:36:21.202Z,98306.16
2023-10-26T18:38:49.864Z,98299.41
2023-10-26T18:41:20.432Z,98300.25
2023-10-26T18:43:50.113Z,98295.09
2023-10-26T18:46:18.478Z,98301.84
2023-10-26T18:48:45.929Z,98307.91
2023-10-26T18:51:13.908Z,98305.44
2023-10-26T18:53:42.693Z,98305.44
2023-10-26T18:56:20.296Z,98316.91
2023-10-26T18:58:47.726Z,98308.22
2023-10-26T19:01:15.595Z,98316.06
2023-10-26T19:03:57.412Z,98307.22
2023-10-26T19:06:33.244Z,98316.34
2023-10-26T19:09:00.950Z,98308.47
2023-10-26T19:11:29.362Z,98318.06
2023-10-26T19:13:57.008Z,98311.44
2023-10-26T19:16:25.779Z,98304.31
2023-10-26T19:18:53.461Z,98305.44
2023-10-26T19:21:21.302Z,98306.53
2023-10-26T19:23:48.841Z,98303.00
2023-10-26T19:26:16.520Z,98305.97
2023-10-26T19:28:44.046Z,98298.28
2023-10-26T19:31:13.422Z,98303.00
2023-10-26T19:33:43.764Z,98299.88
2023-10-26T19:36:11.759Z,98298.13
2023-10-26T19:38:39.212Z,98299.78
2023-10-26T19:41:07.070Z,98289.50
2023-10-26T19:43:34.590Z,98297.19
2023-10-26T19:46:02.367Z,98296.09
2023-10-26T19:48:29.930Z,98301.47
2023-10-26T19:50:57.688Z,98293.22
2023-10-26T19:53:25.583Z,98298.22
2023-10-26T19:55:54.357Z,98302.00
2023-10-26T19:58:21.934Z,98308.19
2023-10-26T20:00:49.891Z,98299.97
2023-10-26T20:03:17.388Z,98301.63
2023-10-26T20:05:45.687Z,98301.84
2023-10-26T20:08:13.465Z,98303.22
2023-10-26T20:10:44.681Z,98305.72
2023-10-26T20:13:15.496Z,98316.72
2023-10-26T20:15:43.129Z,98309.22
2023-10-26T20:18:12.017Z,98311.16
2023-10-26T20:20:39.545Z,98299.22
2023-10-26T20:23:08.602Z,98296.72
2023-10-26T20:25:36.110Z,98300.16
2023-10-26T20:28:04.295Z,98304.03
2023-10-26T20:30:31.619Z,98297.66
2023-10-26T20:32:59.501Z,98294.78
2023-10-26T20:35:27.039Z,98299.69
2023-10-26T20:37:54.806Z,98301.72
2023-10-26T20:40:22.295Z,98291.00
2023-10-26T20:42:53.238Z,98299.56
2023-10-26T20:45:20.951Z,98289.81
2023-10-26T20:47:48.690Z,98298.00
2023-10-26T20:50:17.278Z,98301.81
2023-10-26T20:52:44.980Z,98305.78
2023-10-26T20:55:12.789Z,98301.00
2023-10-26T20:57:40.777Z,98296.38
2023-10-26T21:00:08.812Z,98285.94
2023-10-26T21:02:37.638Z,98301.19
2023-10-26T21:05:05.674Z,98300.34
2023-10-26T21:07:33.591Z,98287.03
2023-10-26T21:10:01.258Z,98295.63
2023-10-26T21:12:29.443Z,98292.75
2023-10-26T21:14:57.521Z,98296.66
2023-10-26T21:17:25.207Z,98303.50
2023-10-26T21:19:53.168Z,98294.50
2023-10-26T21:22:20.811Z,98286.72
2023-10-26T21:24:48.926Z,98299.03
2023-10-26T21:27:17.258Z,98300.41
2023-10-26T21:29:45.513Z,98290.41
2023-10-26T21:32:13.485Z,98297.56
2023-10-26T21:34:40.936Z,98303.50
2023-10-26T21:37:08.845Z,98294.78
2023-10-26T21:39:37.108Z,98290.53
2023-10-26T21:42:05.767Z,98300.16
2023-10-26T21:44:34.189Z,98300.06
2023-10-26T21:47:04.953Z,98294.97
2023-10-26T21:49:32.783Z,98307.19
2023-10-26T21:52:00.560Z,98297.75
2023-10-26T21:54:28.308Z,98295.50
2023-10-26T21:56:55.667Z,98299.31
2023-10-26T21:59:23.451Z,98301.25
2023-10-26T22:01:52.069Z,98298.69
2023-10-26T22:04:22.471Z,98287.19
2023-10-26T22:06:50.295Z,98298.69
2023-10-26T22:09:18.462Z,98300.31
2023-10-26T22:11:45.875Z,98297.94
2023-10-26T22:14:13.680Z,98295.28
2023-10-26T22:16:41.563Z,98306.09
2023-10-26T22:19:09.512Z,98306.19
2023-10-26T22:21:36.814Z,98301.38
2023-10-26T22:24:04.855Z,98300.72
2023-10-26T22:26:32.228Z,98304.41
2023-10-26T22:28:59.886Z,98300.06
2023-10-26T22:31:27.549Z,98294.34
2023-10-26T22:33:55.328Z,98294.44
2023-10-26T22:36:22.685Z,98301.63
2023-10-26T22:38:50.445Z,98292.47
2023-10-26T22:41:17.940Z,98295.56
2023-10-26T22:43:45.541Z,98293.06
2023-10-26T22:46:13.111Z,98303.31
2023-10-26T22:48:40.791Z,98289.97
2023-10-26T22:51:08.057Z,98300.34
2023-10-26T22:53:36.064Z,98301.91
2023-10-26T22:56:03.602Z,98300.81
2023-10-26T22:58:31.303Z,98292.31
2023-10-26T23:01:05.025Z,98303.97
2023-10-26T23:03:32.764Z,98303.50
2023-10-26T23:06:00.300Z,98297.31
2023-10-26T23:08:28.438Z,98292.22
2023-10-26T23:10:55.751Z,98305.25
2023-10-26T23:13:23.489Z,98309.44
2023-10-26T23:15:51.136Z,98315.16
2023-10-26T23:18:19.024Z,98304.31
2023-10-26T23:20:46.344Z,98303.78
2023-10-26T23:23:14.035Z,98296.84
2023-10-26T23:25:45.473Z,98304.59
2023-10-26T23:28:13.379Z,98305.72
2023-10-26T23:30:40.761Z,98301.34
2023-10-26T23:33:09.079Z,98307.28
2023-10-26T23:35:42.808Z,98307.47
2023-10-26T23:38:10.371Z,98305.31
2023-10-26T23:40:38.284Z,98319.13
2023-10-26T23:43:06.055Z,98301.66
2023-10-26T23:45:33.459Z,98296.38
2023-10-26T23:48:01.226Z,98299.31
2023-10-26T23:50:28.731Z,98307.00
2023-10-26T23:52:56.388Z,98313.94
2023-10-26T23:55:23.807Z,98309.41
2023-10-26T23:57:51.460Z,98294.88
